Time;durP1;ratioP1;P1;durP2;ratioP2;P2;SDS_P1;SDS_P2;PMS_P1;PMS_P2;Temp;Humidity;BMP_temperature;BMP_pressure;BME280_temperature;BME280_humidity;BME280_pressure;Samples;Min_cycle;Max_cycle;Signal;HPM_P1;HPM_P2
2021/12/01 00:02:06;;;;;;;216.07;38.85;;;10.00;95.10;;;;;;5083322;28;20143;-75
2021/12/01 00:04:32;;;;;;;214.73;40.85;;;10.00;95.10;;;;;;5070033;28;20046;-76
2021/12/01 00:06:58;;;;;;;229.63;43.17;;;10.00;95.10;;;;;;5087956;28;20054;-76
2021/12/01 00:09:23;;;;;;;224.63;41.83;;;10.00;95.10;;;;;;5072876;28;20131;-75
2021/12/01 00:11:49;;;;;;;231.25;44.15;;;10.00;95.10;;;;;;5070437;28;20059;-75
2021/12/01 00:14:15;;;;;;;208.80;40.67;;;10.10;95.20;;;;;;5086294;28;20100;-76
2021/12/01 00:16:40;;;;;;;204.00;41.28;;;10.10;95.10;;;;;;5071990;28;20143;-75
2021/12/01 00:19:06;;;;;;;211.25;41.13;;;10.00;95.10;;;;;;5082996;28;20043;-75
2021/12/01 00:21:32;;;;;;;204.98;40.92;;;10.10;95.10;;;;;;5088308;28;20053;-75
2021/12/01 00:23:58;;;;;;;206.55;41.35;;;10.10;95.10;;;;;;5067231;28;20113;-75
2021/12/01 00:26:23;;;;;;;203.23;40.50;;;10.10;95.10;;;;;;5057595;28;20881;-75
2021/12/01 00:28:49;;;;;;;197.98;38.63;;;10.10;95.10;;;;;;5089037;28;20412;-75
2021/12/01 00:31:15;;;;;;;210.00;40.88;;;10.10;95.10;;;;;;5055929;28;20037;-75
2021/12/01 00:33:41;;;;;;;186.48;38.30;;;10.10;95.20;;;;;;5071535;28;20577;-75
2021/12/01 00:36:13;;;;;;;182.30;38.95;;;10.10;95.20;;;;;;5082682;28;20049;-75
2021/12/01 00:38:40;;;;;;;169.13;36.92;;;10.10;95.20;;;;;;5049756;28;20116;-75
2021/12/01 00:41:07;;;;;;;179.88;37.75;;;10.10;95.20;;;;;;5092274;28;20052;-75
2021/12/01 00:43:35;;;;;;;165.05;36.63;;;10.10;95.20;;;;;;5052733;28;20412;-75
2021/12/01 00:46:10;;;;;;;161.98;36.10;;;10.10;95.20;;;;;;5055005;28;20042;-76
2021/12/01 00:48:36;;;;;;;151.85;33.97;;;10.10;95.20;;;;;;5068218;28;20144;-76
2021/12/01 00:51:01;;;;;;;159.13;34.53;;;10.10;95.20;;;;;;5041562;28;20185;-76
2021/12/01 00:53:27;;;;;;;147.82;34.47;;;10.10;95.20;;;;;;5072307;28;20057;-75
2021/12/01 00:55:52;;;;;;;141.73;33.25;;;10.10;95.20;;;;;;5082848;28;20046;-76
2021/12/01 00:58:18;;;;;;;128.13;32.15;;;10.10;95.20;;;;;;5063431;28;20054;-75
2021/12/01 01:00:45;;;;;;;129.10;30.45;;;10.10;95.20;;;;;;5070201;28;20177;-75
2021/12/01 01:03:10;;;;;;;124.25;32.47;;;10.10;95.20;;;;;;5052491;28;20111;-75
2021/12/01 01:05:37;;;;;;;128.82;29.95;;;10.10;95.20;;;;;;5060847;28;20048;-75
2021/12/01 01:08:03;;;;;;;119.57;28.58;;;10.10;95.20;;;;;;5076453;28;20076;-75
2021/12/01 01:10:35;;;;;;;111.72;28.63;;;10.20;95.20;;;;;;5083161;28;20501;-75
2021/12/01 01:18:36;;;;;;;87.97;23.23;;;10.20;95.20;;;;;;5078838;28;20102;-75
2021/12/01 01:21:03;;;;;;;90.53;23.92;;;10.20;95.20;;;;;;5086990;28;20051;-75
2021/12/01 01:23:29;;;;;;;80.55;21.25;;;10.20;95.20;;;;;;5092807;28;20063;-75
2021/12/01 01:25:59;;;;;;;82.35;21.13;;;10.20;95.20;;;;;;5075244;28;20435;-75
2021/12/01 01:28:26;;;;;;;57.17;16.23;;;10.20;95.20;;;;;;5062314;28;20047;-75
2021/12/01 01:30:53;;;;;;;58.95;16.42;;;10.20;95.20;;;;;;5089897;28;20038;-76
2021/12/01 01:33:20;;;;;;;52.75;15.27;;;10.20;95.20;;;;;;5088481;28;20058;-75
2021/12/01 01:35:46;;;;;;;56.92;15.45;;;10.20;95.20;;;;;;5043007;28;20134;-75
2021/12/01 01:38:12;;;;;;;52.05;15.30;;;10.20;95.20;;;;;;5070285;28;20470;-75
2021/12/01 01:40:38;;;;;;;55.75;15.93;;;10.20;95.20;;;;;;5069663;28;20056;-75
2021/12/01 01:43:07;;;;;;;58.17;16.33;;;10.30;95.20;;;;;;5075040;28;20063;-75
2021/12/01 01:45:34;;;;;;;48.22;15.35;;;10.20;95.20;;;;;;5058262;28;20086;-75
2021/12/01 01:48:04;;;;;;;53.67;16.17;;;10.30;95.20;;;;;;5071288;28;20185;-75
2021/12/01 01:50:38;;;;;;;51.75;15.60;;;10.30;95.20;;;;;;5073497;28;20487;-75
2021/12/01 01:53:10;;;;;;;42.60;13.35;;;10.30;95.20;;;;;;5057029;28;20038;-75
2021/12/01 01:55:40;;;;;;;36.15;11.02;;;10.30;95.20;;;;;;5088491;28;20232;-75
2021/12/01 01:58:06;;;;;;;29.35;10.23;;;10.30;95.20;;;;;;5091584;28;20098;-75
2021/12/01 02:00:36;;;;;;;38.20;10.98;;;10.30;95.20;;;;;;5073750;28;20169;-75
2021/12/01 02:03:02;;;;;;;36.75;11.05;;;10.30;95.20;;;;;;5093367;28;20049;-75
2021/12/01 02:05:28;;;;;;;32.97;10.48;;;10.30;95.50;;;;;;5048628;28;20189;-76
2021/12/01 02:07:54;;;;;;;28.85;7.60;;;10.30;95.20;;;;;;5068418;28;20104;-75
2021/12/01 02:10:20;;;;;;;28.83;8.05;;;10.30;95.10;;;;;;5065600;28;20055;-76
2021/12/01 02:12:46;;;;;;;27.13;8.23;;;10.30;95.20;;;;;;5089219;28;20132;-76
2021/12/01 02:15:12;;;;;;;32.72;8.77;;;10.30;95.20;;;;;;5049853;28;20130;-75
2021/12/01 02:17:38;;;;;;;23.73;7.88;;;10.30;95.50;;;;;;5074309;28;20088;-75
2021/12/01 02:20:11;;;;;;;24.38;7.13;;;10.30;95.20;;;;;;5093241;28;20435;-75
2021/12/01 02:22:37;;;;;;;20.80;6.90;;;10.30;95.20;;;;;;5068521;28;20064;-75
2021/12/01 02:25:03;;;;;;;25.05;8.00;;;10.30;95.20;;;;;;5056707;28;20125;-75
2021/12/01 02:27:28;;;;;;;27.52;8.35;;;10.30;95.20;;;;;;5093257;28;20044;-76
2021/12/01 02:29:54;;;;;;;19.60;6.65;;;10.40;95.30;;;;;;5085526;28;20072;-76
2021/12/01 02:32:19;;;;;;;18.83;6.55;;;10.40;95.30;;;;;;5074022;28;20049;-75
2021/12/01 02:34:45;;;;;;;24.73;6.25;;;10.40;95.30;;;;;;5070805;28;20055;-75
2021/12/01 02:37:11;;;;;;;21.98;5.80;;;10.40;95.30;;;;;;5090762;28;20043;-76
2021/12/01 02:39:38;;;;;;;24.73;5.85;;;10.50;95.30;;;;;;5074234;28;20049;-75
2021/12/01 02:42:07;;;;;;;18.75;5.13;;;10.50;95.30;;;;;;5070153;28;20047;-75
2021/12/01 02:44:33;;;;;;;31.60;5.55;;;10.50;95.30;;;;;;5073976;28;20056;-75
2021/12/01 02:47:00;;;;;;;20.35;5.45;;;10.50;95.30;;;;;;5071827;28;20050;-75
2021/12/01 02:49:28;;;;;;;28.75;6.00;;;10.50;95.30;;;;;;5064371;28;20654;-75
2021/12/01 02:51:56;;;;;;;23.42;6.68;;;10.60;95.30;;;;;;5089699;28;20042;-75
2021/12/01 02:54:23;;;;;;;21.17;6.30;;;10.60;95.30;;;;;;5081138;28;20043;-75
2021/12/01 02:56:50;;;;;;;22.80;6.03;;;10.60;95.30;;;;;;5074618;28;20509;-75
2021/12/01 02:59:17;;;;;;;27.80;6.45;;;10.60;95.30;;;;;;5073362;28;20050;-75
2021/12/01 03:01:44;;;;;;;19.17;5.45;;;10.60;95.30;;;;;;5046383;28;20139;-76
2021/12/01 03:04:10;;;;;;;23.40;6.32;;;10.60;95.30;;;;;;5070028;28;20151;-75
2021/12/01 03:06:36;;;;;;;16.00;5.90;;;10.60;95.30;;;;;;5064781;28;20514;-75
2021/12/01 03:09:05;;;;;;;18.05;6.00;;;10.60;95.30;;;;;;5059380;28;20051;-75
2021/12/01 03:11:31;;;;;;;26.70;7.35;;;10.60;95.30;;;;;;5060465;28;20736;-75
2021/12/01 03:13:57;;;;;;;21.85;5.68;;;10.60;95.20;;;;;;5053781;28;20151;-75
2021/12/01 03:16:23;;;;;;;21.48;4.70;;;10.60;95.30;;;;;;5064990;28;20474;-75
2021/12/01 03:18:49;;;;;;;27.65;5.35;;;10.60;95.30;;;;;;5063063;28;20400;-75
2021/12/01 03:21:16;;;;;;;15.88;4.47;;;10.60;95.30;;;;;;5054786;28;20053;-75
2021/12/01 03:23:42;;;;;;;19.50;4.90;;;10.60;95.60;;;;;;5085055;28;20515;-75
2021/12/01 03:26:09;;;;;;;29.80;6.38;;;10.60;95.20;;;;;;5077940;28;20193;-75
2021/12/01 03:28:35;;;;;;;19.55;5.70;;;10.60;95.20;;;;;;5072499;28;20782;-75
2021/12/01 03:31:01;;;;;;;29.48;5.53;;;10.60;95.20;;;;;;5063889;28;20107;-76
2021/12/01 03:33:27;;;;;;;29.25;4.82;;;10.60;95.20;;;;;;5088436;28;20058;-75
2021/12/01 03:35:54;;;;;;;23.23;4.38;;;10.60;95.20;;;;;;5065275;28;20582;-75
2021/12/01 03:38:22;;;;;;;28.92;5.25;;;10.60;95.20;;;;;;5089150;28;20049;-75
2021/12/01 03:40:49;;;;;;;27.13;5.50;;;10.60;95.20;;;;;;5077915;28;20062;-75
2021/12/01 03:43:15;;;;;;;19.75;4.30;;;10.60;95.20;;;;;;5061267;28;20409;-75
2021/12/01 03:45:41;;;;;;;27.13;4.68;;;10.60;95.10;;;;;;5086014;28;20061;-76
2021/12/01 03:48:06;;;;;;;17.75;4.22;;;10.60;95.10;;;;;;5070350;28;20046;-75
2021/12/01 03:50:32;;;;;;;20.38;5.30;;;10.60;95.10;;;;;;5069820;28;20077;-75
2021/12/01 03:52:58;;;;;;;20.92;5.45;;;10.60;95.10;;;;;;5065576;28;20059;-75
2021/12/01 03:55:24;;;;;;;19.67;4.00;;;10.60;95.10;;;;;;5032411;28;20398;-75
2021/12/01 03:57:49;;;;;;;16.52;3.88;;;10.60;95.00;;;;;;5068757;28;20053;-75
2021/12/01 04:00:17;;;;;;;16.63;4.55;;;10.60;95.00;;;;;;5088829;28;20052;-76
2021/12/01 04:02:43;;;;;;;13.63;4.47;;;10.60;95.00;;;;;;5059339;28;20095;-75
2021/12/01 04:05:10;;;;;;;15.15;5.13;;;10.50;95.00;;;;;;5045661;28;20089;-75
2021/12/01 04:07:36;;;;;;;16.70;5.65;;;10.50;95.00;;;;;;5069186;28;20137;-75
2021/12/01 04:10:05;;;;;;;15.93;4.70;;;10.50;95.00;;;;;;5063247;28;20139;-75
2021/12/01 04:12:30;;;;;;;12.65;4.60;;;10.50;95.00;;;;;;5062005;28;20137;-75
2021/12/01 04:14:56;;;;;;;11.20;4.40;;;10.50;95.00;;;;;;5060425;28;20141;-75
2021/12/01 04:17:22;;;;;;;18.65;4.68;;;10.50;95.00;;;;;;5068479;28;20407;-75
2021/12/01 04:19:47;;;;;;;11.52;4.95;;;10.50;95.00;;;;;;5063508;28;20057;-80
2021/12/01 04:22:13;;;;;;;16.42;4.68;;;10.50;95.00;;;;;;5047110;28;20493;-80
2021/12/01 04:24:39;;;;;;;14.02;5.32;;;10.50;95.00;;;;;;5062708;28;20503;-79
2021/12/01 04:27:05;;;;;;;11.80;5.10;;;10.50;95.00;;;;;;5070450;28;20077;-79
2021/12/01 04:29:30;;;;;;;12.07;4.20;;;10.50;95.00;;;;;;5066569;28;20078;-80
2021/12/01 04:31:56;;;;;;;15.82;5.43;;;10.50;95.00;;;;;;5066305;28;20558;-80
2021/12/01 04:34:22;;;;;;;14.77;4.53;;;10.50;95.00;;;;;;5069992;28;20057;-80
2021/12/01 04:36:49;;;;;;;12.13;4.00;;;10.50;95.00;;;;;;5062726;28;20086;-79
2021/12/01 04:39:18;;;;;;;11.68;3.90;;;10.50;94.90;;;;;;5055758;28;20045;-79
2021/12/01 04:41:52;;;;;;;14.20;4.88;;;10.40;94.90;;;;;;5082280;28;20061;-80
2021/12/01 04:44:19;;;;;;;14.93;4.68;;;10.40;94.90;;;;;;5086997;28;20061;-80
2021/12/01 04:46:47;;;;;;;12.73;4.40;;;10.40;94.90;;;;;;5084227;28;20055;-79
2021/12/01 04:49:18;;;;;;;10.18;4.03;;;10.40;94.90;;;;;;5090513;28;20512;-80
2021/12/01 04:51:48;;;;;;;12.77;4.38;;;10.40;94.90;;;;;;5066194;28;20087;-80
2021/12/01 04:54:14;;;;;;;15.05;5.00;;;10.30;94.90;;;;;;5096398;28;20058;-80
2021/12/01 04:56:41;;;;;;;14.07;5.00;;;10.40;95.00;;;;;;5075293;28;20523;-80
2021/12/01 04:59:08;;;;;;;11.00;4.57;;;10.30;94.90;;;;;;5070585;28;20081;-80
2021/12/01 05:01:35;;;;;;;14.07;4.72;;;10.40;94.90;;;;;;5076599;28;20111;-80
2021/12/01 05:04:01;;;;;;;16.50;5.32;;;10.30;94.90;;;;;;5084693;28;20074;-80
2021/12/01 05:06:28;;;;;;;16.05;5.15;;;10.30;94.90;;;;;;5062291;28;20055;-80
2021/12/01 05:08:53;;;;;;;12.75;4.72;;;10.30;94.90;;;;;;5043382;28;20051;-77
2021/12/01 05:11:19;;;;;;;11.32;4.22;;;10.30;94.90;;;;;;5089832;28;20488;-78
2021/12/01 05:13:45;;;;;;;14.43;4.53;;;10.30;94.90;;;;;;5061649;28;20540;-80
2021/12/01 05:16:10;;;;;;;14.93;5.70;;;10.30;94.90;;;;;;5088399;28;20557;-83
2021/12/01 05:18:36;;;;;;;12.00;4.88;;;10.30;94.90;;;;;;5085828;28;20066;-80
2021/12/01 05:21:02;;;;;;;13.57;4.07;;;10.30;94.90;;;;;;5069687;28;20132;-83
2021/12/01 05:23:29;;;;;;;10.25;4.47;;;10.20;94.80;;;;;;5044838;28;20511;-80
2021/12/01 05:25:55;;;;;;;11.38;4.28;;;10.20;94.80;;;;;;5087104;28;20052;-81
2021/12/01 05:28:21;;;;;;;11.63;4.90;;;10.20;94.80;;;;;;5071004;28;20129;-84
2021/12/01 05:30:47;;;;;;;14.73;5.03;;;10.20;94.80;;;;;;5074032;28;20122;-84
2021/12/01 05:33:14;;;;;;;12.20;4.63;;;10.20;94.80;;;;;;5070291;28;20145;-83
2021/12/01 05:35:42;;;;;;;11.52;4.75;;;10.20;95.20;;;;;;5058593;28;20622;-82
2021/12/01 05:38:08;;;;;;;13.05;5.38;;;10.20;95.10;;;;;;5069473;28;20054;-81
2021/12/01 05:40:34;;;;;;;14.35;5.15;;;10.20;94.80;;;;;;5053627;28;20155;-82
2021/12/01 05:43:00;;;;;;;12.07;5.57;;;10.20;94.80;;;;;;5069717;28;20153;-82
2021/12/01 05:45:25;;;;;;;11.60;4.78;;;10.20;94.80;;;;;;5051029;28;20053;-81
2021/12/01 05:47:51;;;;;;;11.82;4.85;;;10.10;94.70;;;;;;5048341;28;20043;-79
2021/12/01 05:50:18;;;;;;;14.90;5.63;;;10.10;94.70;;;;;;5067995;28;20059;-80
2021/12/01 05:52:44;;;;;;;11.20;4.35;;;10.10;94.70;;;;;;5086493;28;20101;-80
2021/12/01 05:55:10;;;;;;;10.18;4.35;;;10.10;94.70;;;;;;5059377;28;20056;-80
2021/12/01 05:57:36;;;;;;;10.15;4.38;;;10.10;94.70;;;;;;5068051;28;20054;-79
2021/12/01 06:00:06;;;;;;;10.30;4.75;;;10.10;95.10;;;;;;5047488;28;20052;-79
2021/12/01 06:02:31;;;;;;;11.48;5.20;;;10.10;94.70;;;;;;5069667;28;20535;-82
2021/12/01 06:04:57;;;;;;;10.80;5.55;;;10.10;94.70;;;;;;5071745;28;20131;-78
2021/12/01 06:07:23;;;;;;;12.88;5.70;;;10.00;94.70;;;;;;5075544;28;20062;-82
2021/12/01 06:09:49;;;;;;;11.38;5.50;;;10.00;94.60;;;;;;5046326;28;20061;-80
2021/12/01 06:12:15;;;;;;;10.57;4.90;;;10.00;94.60;;;;;;5067604;28;20879;-79
2021/12/01 06:14:41;;;;;;;8.70;4.15;;;10.00;94.80;;;;;;5056291;28;20066;-84
2021/12/01 06:17:14;;;;;;;12.82;6.07;;;10.00;94.70;;;;;;5071850;28;20481;-88
2021/12/01 06:19:40;;;;;;;10.75;4.88;;;10.00;94.60;;;;;;5068811;28;20051;-89
2021/12/01 06:22:06;;;;;;;11.80;5.30;;;10.00;94.60;;;;;;5091156;28;20049;-87
2021/12/01 06:24:33;;;;;;;11.57;5.25;;;10.00;94.60;;;;;;5040843;28;20073;-83
2021/12/01 06:26:59;;;;;;;8.50;4.03;;;9.90;94.60;;;;;;5075256;28;20055;-88
2021/12/01 06:29:24;;;;;;;7.53;3.88;;;10.00;94.60;;;;;;5090594;28;20105;-87
2021/12/01 06:31:50;;;;;;;10.02;4.13;;;9.90;94.60;;;;;;5058965;28;20040;-88
2021/12/01 06:34:16;;;;;;;6.43;2.92;;;10.00;94.60;;;;;;5064627;28;20139;-87
2021/12/01 06:36:42;;;;;;;8.52;3.67;;;9.90;94.60;;;;;;5090998;28;20057;-89
2021/12/01 06:39:08;;;;;;;8.70;3.25;;;9.90;94.60;;;;;;5078498;28;20497;-90
2021/12/01 06:41:34;;;;;;;6.65;2.95;;;9.90;94.60;;;;;;5056167;28;20062;-85
2021/12/01 06:44:00;;;;;;;6.82;3.15;;;9.90;94.50;;;;;;5067007;28;20067;-86
2021/12/01 06:46:26;;;;;;;6.80;2.85;;;9.90;94.50;;;;;;5052950;28;20063;-85
2021/12/01 06:48:52;;;;;;;5.45;2.83;;;9.90;94.60;;;;;;5064150;28;20039;-85
2021/12/01 06:51:18;;;;;;;6.38;2.58;;;9.90;94.50;;;;;;5042858;28;20138;-86
2021/12/01 06:53:44;;;;;;;6.13;3.00;;;9.90;94.50;;;;;;5083833;28;20088;-85
2021/12/01 06:56:09;;;;;;;7.03;3.28;;;9.90;94.60;;;;;;5069687;28;20079;-86
2021/12/01 06:58:37;;;;;;;7.43;3.10;;;9.80;94.50;;;;;;5052982;28;20064;-86
2021/12/01 07:01:05;;;;;;;6.10;3.20;;;9.80;94.50;;;;;;5066864;28;20059;-86
2021/12/01 07:03:31;;;;;;;7.75;3.40;;;9.80;94.50;;;;;;5044439;28;20104;-86
2021/12/01 07:05:57;;;;;;;11.50;3.20;;;9.80;94.50;;;;;;5065835;28;20515;-86
2021/12/01 07:08:23;;;;;;;6.38;3.50;;;9.80;94.50;;;;;;5089579;28;20051;-86
2021/12/01 07:10:49;;;;;;;7.90;3.65;;;9.80;94.50;;;;;;5038231;28;20135;-86
2021/12/01 07:13:15;;;;;;;8.60;3.95;;;9.80;94.50;;;;;;5070380;28;20068;-81
2021/12/01 07:15:40;;;;;;;11.07;5.00;;;9.80;94.50;;;;;;5056381;28;20145;-86
2021/12/01 07:18:07;;;;;;;8.27;3.80;;;9.80;94.60;;;;;;5067879;28;20085;-83
2021/12/01 07:20:32;;;;;;;12.68;5.72;;;9.80;94.50;;;;;;5054932;28;20533;-82
2021/12/01 07:22:58;;;;;;;12.30;6.18;;;9.80;94.60;;;;;;5050250;28;20089;-83
2021/12/01 07:25:24;;;;;;;11.55;4.95;;;9.80;94.60;;;;;;5086916;28;20083;-82
2021/12/01 07:27:49;;;;;;;15.25;6.45;;;9.80;94.60;;;;;;5065954;28;20138;-83
2021/12/01 07:30:15;;;;;;;12.55;5.63;;;9.80;94.60;;;;;;5054222;28;20104;-83
2021/12/01 07:32:41;;;;;;;13.70;6.35;;;9.80;94.50;;;;;;5067487;28;20048;-83
2021/12/01 07:35:07;;;;;;;14.45;6.00;;;9.80;94.60;;;;;;5079107;28;20142;-82
2021/12/01 07:37:32;;;;;;;14.32;5.95;;;9.90;94.60;;;;;;5066622;28;20047;-82
2021/12/01 07:39:58;;;;;;;17.83;7.40;;;9.90;94.60;;;;;;5036613;28;20427;-82
2021/12/01 07:42:24;;;;;;;17.70;7.47;;;9.90;94.60;;;;;;5047549;28;20508;-83
2021/12/01 07:44:49;;;;;;;20.88;7.90;;;9.90;94.60;;;;;;5049281;28;20062;-83
2021/12/01 07:47:15;;;;;;;17.13;7.40;;;9.90;94.60;;;;;;5072561;28;20105;-83
2021/12/01 07:49:41;;;;;;;18.50;7.15;;;9.90;94.60;;;;;;5053707;28;20058;-83
2021/12/01 07:52:08;;;;;;;19.30;7.32;;;9.90;94.60;;;;;;5068040;28;20052;-82
2021/12/01 07:54:35;;;;;;;16.77;6.75;;;9.90;94.60;;;;;;5068980;28;20044;-83
2021/12/01 07:57:01;;;;;;;19.88;7.75;;;10.00;94.60;;;;;;5054329;28;20059;-83
2021/12/01 07:59:28;;;;;;;22.40;7.75;;;10.00;94.60;;;;;;5076436;28;20484;-83
2021/12/01 08:01:53;;;;;;;14.90;6.40;;;10.00;94.50;;;;;;5074076;28;20119;-83
2021/12/01 08:04:19;;;;;;;12.88;6.53;;;10.00;94.50;;;;;;5047254;28;20103;-83
2021/12/01 08:06:45;;;;;;;14.60;6.47;;;10.00;94.50;;;;;;5046043;28;20051;-83
2021/12/01 08:09:11;;;;;;;13.10;6.40;;;10.00;94.50;;;;;;5034357;28;20056;-83
2021/12/01 08:11:38;;;;;;;16.27;6.35;;;10.00;94.50;;;;;;5044138;28;20043;-83
2021/12/01 08:14:06;;;;;;;10.95;6.25;;;10.00;94.40;;;;;;5046694;28;20061;-82
2021/12/01 08:16:32;;;;;;;19.48;5.50;;;10.10;94.50;;;;;;5018984;28;20063;-82
2021/12/01 08:18:58;;;;;;;13.07;6.25;;;10.10;94.40;;;;;;5045867;28;20506;-82
2021/12/01 08:21:25;;;;;;;13.30;5.50;;;10.10;94.40;;;;;;5036568;28;20062;-82
2021/12/01 08:23:52;;;;;;;15.40;6.45;;;10.10;94.40;;;;;;5055643;28;20090;-82
2021/12/01 08:26:18;;;;;;;13.27;5.55;;;10.10;94.40;;;;;;5067794;28;20475;-82
2021/12/01 08:28:47;;;;;;;13.75;6.03;;;10.10;94.40;;;;;;5069482;28;20136;-82
2021/12/01 08:31:14;;;;;;;12.85;5.70;;;10.10;94.40;;;;;;5048805;28;20056;-83
2021/12/01 08:33:40;;;;;;;12.20;5.22;;;10.00;94.30;;;;;;5052246;28;20051;-83
2021/12/01 08:36:07;;;;;;;15.90;4.18;;;10.10;94.30;;;;;;5036198;28;20113;-83
2021/12/01 08:38:32;;;;;;;9.40;3.78;;;10.10;94.30;;;;;;5053738;28;20060;-84
2021/12/01 08:40:59;;;;;;;14.63;3.95;;;10.00;94.20;;;;;;5064503;28;20055;-84
2021/12/01 08:43:24;;;;;;;15.00;3.17;;;10.00;94.20;;;;;;5026119;28;21749;-84
2021/12/01 08:45:50;;;;;;;15.90;3.60;;;10.00;94.10;;;;;;5062895;28;20041;-78
2021/12/01 08:48:16;;;;;;;23.02;3.65;;;10.00;94.00;;;;;;5030675;28;20387;-78
2021/12/01 08:50:42;;;;;;;24.05;3.47;;;10.00;94.00;;;;;;5060056;28;20090;-78
2021/12/01 08:53:08;;;;;;;19.77;3.30;;;9.90;93.90;;;;;;5031061;28;20055;-78
2021/12/01 08:55:34;;;;;;;20.85;3.28;;;9.90;93.90;;;;;;5030558;28;20685;-78
2021/12/01 08:58:00;;;;;;;18.25;3.03;;;9.80;93.90;;;;;;5066373;28;20064;-78
2021/12/01 09:00:27;;;;;;;20.23;2.83;;;9.90;93.90;;;;;;5043664;28;20060;-78
2021/12/01 09:02:52;;;;;;;15.60;3.50;;;9.90;93.90;;;;;;5065478;28;20606;-76
2021/12/01 09:05:18;;;;;;;21.30;3.50;;;9.90;93.90;;;;;;5038578;28;20147;-78
2021/12/01 09:07:44;;;;;;;15.38;2.45;;;9.90;93.80;;;;;;5068631;28;20081;-78
2021/12/01 09:10:09;;;;;;;18.17;1.90;;;9.90;93.80;;;;;;5070157;28;20055;-78
2021/12/01 09:12:35;;;;;;;14.27;2.10;;;9.90;93.70;;;;;;5067472;28;20082;-77
2021/12/01 09:15:01;;;;;;;11.63;2.60;;;10.00;93.70;;;;;;5052803;28;20063;-77
2021/12/01 09:17:27;;;;;;;15.43;1.95;;;10.00;93.60;;;;;;5053794;28;20139;-77
2021/12/01 09:19:53;;;;;;;8.95;1.50;;;10.10;93.50;;;;;;5059182;28;20053;-77
2021/12/01 09:22:19;;;;;;;16.98;1.83;;;10.10;93.40;;;;;;5065812;28;20096;-77
2021/12/01 09:24:47;;;;;;;13.25;1.92;;;10.10;93.30;;;;;;5062405;28;20055;-77
2021/12/01 09:27:13;;;;;;;10.88;1.25;;;10.10;93.20;;;;;;5069678;28;20086;-78
2021/12/01 09:29:38;;;;;;;9.10;1.15;;;10.10;93.20;;;;;;5061839;28;20124;-77
2021/12/01 09:32:05;;;;;;;10.30;1.40;;;10.10;93.10;;;;;;5084964;28;20490;-77
2021/12/01 09:34:31;;;;;;;12.00;1.83;;;10.10;93.00;;;;;;5056504;28;20081;-77
2021/12/01 09:36:57;;;;;;;16.08;1.38;;;10.10;93.30;;;;;;5070855;28;20082;-78
2021/12/01 09:39:24;;;;;;;17.02;1.60;;;10.00;93.00;;;;;;5073444;28;20055;-77
2021/12/01 09:41:49;;;;;;;11.80;1.60;;;10.00;93.00;;;;;;5072752;28;20046;-78
2021/12/01 09:44:15;;;;;;;15.15;2.47;;;9.90;92.90;;;;;;5067546;28;20692;-78
2021/12/01 09:46:41;;;;;;;18.52;2.25;;;9.90;93.40;;;;;;5048168;28;20047;-77
2021/12/01 09:49:07;;;;;;;9.20;1.48;;;9.90;93.10;;;;;;5059135;28;20841;-78
2021/12/01 09:51:33;;;;;;;17.85;1.92;;;9.90;93.10;;;;;;5054127;28;20728;-77
2021/12/01 09:54:00;;;;;;;7.72;1.10;;;9.90;93.10;;;;;;5092598;28;20121;-77
2021/12/01 09:56:27;;;;;;;18.17;1.50;;;9.90;93.10;;;;;;5086106;28;20106;-78
2021/12/01 09:58:53;;;;;;;27.70;2.63;;;9.90;93.10;;;;;;5050514;28;20052;-77
2021/12/01 10:01:21;;;;;;;18.85;2.03;;;10.00;93.00;;;;;;5088155;28;20163;-78
2021/12/01 10:03:47;;;;;;;16.23;1.45;;;10.00;93.00;;;;;;5066108;28;20153;-77
2021/12/01 10:06:17;;;;;;;22.42;2.35;;;10.00;93.00;;;;;;5070575;28;20055;-78
2021/12/01 10:09:05;;;;;;;16.85;1.88;;;10.00;93.00;;;;;;5082160;28;20035;-77
2021/12/01 10:11:36;;;;;;;22.52;2.30;;;10.00;93.00;;;;;;5073580;28;20048;-77
2021/12/01 10:14:17;;;;;;;18.67;4.22;;;10.10;93.00;;;;;;5059686;28;20051;-77
2021/12/01 10:16:44;;;;;;;17.90;1.98;;;10.10;92.90;;;;;;5079788;28;20049;-78
2021/12/01 10:19:12;;;;;;;18.05;1.77;;;10.10;92.80;;;;;;5087140;28;20558;-77
2021/12/01 10:21:47;;;;;;;22.55;2.15;;;10.10;92.90;;;;;;5067430;28;20040;-78
2021/12/01 10:24:15;;;;;;;18.17;2.78;;;10.10;92.80;;;;;;5085207;28;20066;-78
2021/12/01 10:26:46;;;;;;;13.35;1.45;;;10.10;92.80;;;;;;5084358;28;20045;-78
2021/12/01 10:29:18;;;;;;;16.20;2.00;;;10.10;92.80;;;;;;5063221;28;20075;-78
2021/12/01 10:31:53;;;;;;;19.00;1.65;;;10.10;92.90;;;;;;5085970;28;20045;-77
2021/12/01 10:34:32;;;;;;;13.45;1.92;;;10.20;92.80;;;;;;5063404;28;20043;-77
2021/12/01 10:37:25;;;;;;;27.50;2.53;;;10.20;92.80;;;;;;5072148;28;20050;-77
2021/12/01 10:40:10;;;;;;;14.73;1.40;;;10.20;92.70;;;;;;5079521;28;20045;-77
2021/12/01 10:42:56;;;;;;;18.58;1.95;;;10.20;92.50;;;;;;5072348;28;20518;-82
2021/12/01 10:45:25;;;;;;;12.80;2.58;;;10.20;92.30;;;;;;5069012;28;20050;-82
2021/12/01 10:47:51;;;;;;;14.38;1.38;;;10.20;92.20;;;;;;5069466;28;20077;-82
2021/12/01 10:50:20;;;;;;;15.57;1.70;;;10.20;92.20;;;;;;5088034;28;20457;-82
2021/12/01 10:53:06;;;;;;;15.25;2.10;;;10.10;92.20;;;;;;5078888;28;20047;-83
2021/12/01 10:55:32;;;;;;;19.08;1.80;;;10.10;92.10;;;;;;5083990;28;20126;-86
2021/12/01 10:58:07;;;;;;;26.58;2.95;;;10.10;92.00;;;;;;5037929;28;20099;-88
2021/12/01 11:00:39;;;;;;;12.95;1.63;;;10.10;92.00;;;;;;5084286;28;20051;-83
2021/12/01 11:03:16;;;;;;;16.10;2.10;;;10.10;92.00;;;;;;5082616;28;20223;-85
2021/12/01 11:05:48;;;;;;;14.80;2.03;;;10.00;91.90;;;;;;5075723;28;20506;-76
2021/12/01 11:08:16;;;;;;;23.05;2.72;;;10.00;91.90;;;;;;5067064;28;20050;-76
2021/12/01 11:10:44;;;;;;;20.85;2.38;;;10.00;92.00;;;;;;5091248;28;20138;-77
2021/12/01 11:13:11;;;;;;;16.80;2.17;;;10.00;92.00;;;;;;5054969;28;20090;-77
2021/12/01 11:15:39;;;;;;;24.15;3.30;;;10.00;92.00;;;;;;5064036;28;20066;-77
2021/12/01 11:18:06;;;;;;;25.90;3.15;;;9.90;92.00;;;;;;5064964;28;20081;-77
2021/12/01 11:20:37;;;;;;;26.65;2.85;;;10.00;92.10;;;;;;5069502;28;20090;-77
2021/12/01 11:23:17;;;;;;;23.42;3.67;;;9.90;92.10;;;;;;5065860;28;20192;-77
2021/12/01 11:25:48;;;;;;;19.10;3.70;;;9.90;92.00;;;;;;5082350;28;20046;-77
2021/12/01 11:28:15;;;;;;;20.42;2.67;;;9.90;92.00;;;;;;5078328;28;20038;-77
2021/12/01 11:30:49;;;;;;;26.40;3.58;;;9.90;92.00;;;;;;5066750;28;20052;-77
2021/12/01 11:33:17;;;;;;;22.05;3.05;;;9.90;92.00;;;;;;5067784;28;20538;-77
2021/12/01 11:35:52;;;;;;;26.15;3.80;;;9.90;92.00;;;;;;5068196;28;20383;-77
2021/12/01 11:38:19;;;;;;;25.52;2.58;;;9.80;92.00;;;;;;5087862;28;20497;-77
2021/12/01 11:40:45;;;;;;;19.17;3.03;;;9.80;92.10;;;;;;5069322;28;20058;-77
2021/12/01 11:43:13;;;;;;;18.50;2.58;;;9.80;92.10;;;;;;5084133;28;20062;-77
2021/12/01 11:45:41;;;;;;;21.98;3.03;;;9.80;92.10;;;;;;5070209;28;20487;-77
2021/12/01 11:48:20;;;;;;;27.77;3.10;;;9.80;92.10;;;;;;5067764;28;20043;-78
2021/12/01 11:51:16;;;;;;;32.78;4.68;;;9.80;92.10;;;;;;5067723;28;20046;-78
2021/12/01 11:53:55;;;;;;;27.98;3.25;;;9.70;92.10;;;;;;5062737;28;20050;-78
2021/12/01 11:56:34;;;;;;;30.63;3.53;;;9.70;92.10;;;;;;5063180;28;20076;-77
2021/12/01 11:59:18;;;;;;;25.75;3.42;;;9.70;92.20;;;;;;5083973;28;20057;-77
2021/12/01 12:01:56;;;;;;;25.05;3.22;;;9.60;92.30;;;;;;5081203;28;20170;-77
2021/12/01 12:04:28;;;;;;;30.95;4.43;;;9.60;92.30;;;;;;5087488;28;20133;-77
2021/12/01 12:07:06;;;;;;;27.23;3.65;;;9.60;92.30;;;;;;5074014;28;20051;-77
2021/12/01 12:09:33;;;;;;;18.92;3.00;;;9.60;92.40;;;;;;5078681;28;20043;-86
2021/12/01 12:11:58;;;;;;;25.17;3.92;;;9.60;92.30;;;;;;5070161;28;20049;-86
2021/12/01 12:14:31;;;;;;;22.58;3.72;;;9.60;92.30;;;;;;5089704;28;20071;-85
2021/12/01 12:17:13;;;;;;;35.17;4.40;;;9.50;92.30;;;;;;5074466;28;20056;-85
2021/12/01 12:20:03;;;;;;;33.33;4.18;;;9.50;92.20;;;;;;5072870;28;20059;-84
2021/12/01 12:22:39;;;;;;;30.05;4.22;;;9.50;92.20;;;;;;5083181;28;20511;-85
2021/12/01 12:25:09;;;;;;;27.85;3.75;;;9.50;92.30;;;;;;5069921;28;20047;-85
2021/12/01 12:27:40;;;;;;;32.60;3.60;;;9.60;92.30;;;;;;5069945;28;20120;-85
2021/12/01 12:30:12;;;;;;;35.22;4.53;;;9.70;92.20;;;;;;5086692;28;20054;-84
2021/12/01 12:32:39;;;;;;;33.65;3.10;;;9.70;92.10;;;;;;5083380;28;20078;-84
2021/12/01 12:35:08;;;;;;;21.60;2.50;;;9.80;92.00;;;;;;5056846;28;20050;-82
2021/12/01 12:37:36;;;;;;;32.22;3.00;;;9.80;91.80;;;;;;5071681;28;20048;-82
2021/12/01 12:40:10;;;;;;;18.13;3.00;;;9.80;91.50;;;;;;5077193;28;20048;-82
2021/12/01 12:42:36;;;;;;;24.52;2.63;;;9.80;91.20;;;;;;5087935;28;20049;-82
2021/12/01 12:45:02;;;;;;;20.00;2.90;;;9.80;91.00;;;;;;5071625;28;20059;-82
2021/12/01 12:47:40;;;;;;;22.45;2.88;;;9.70;90.70;;;;;;5084729;28;20048;-82